createdAt,value
2023-05-19T00:00:21.445Z,4.23
2023-05-19T00:03:09.185Z,4.40
2023-05-19T00:05:59.352Z,4.77
2023-05-19T00:08:46.933Z,4.10
2023-05-19T00:11:36.833Z,3.57
2023-05-19T00:14:24.409Z,4.60
2023-05-19T00:17:14.410Z,3.77
2023-05-19T00:20:07.304Z,4.10
2023-05-19T00:22:54.919Z,4.00
2023-05-19T00:25:42.196Z,4.27
2023-05-19T00:28:30.323Z,4.80
2023-05-19T00:31:17.640Z,4.00
2023-05-19T00:34:07.215Z,4.47
2023-05-19T00:36:54.399Z,4.40
2023-05-19T00:39:42.533Z,4.17
2023-05-19T00:42:29.799Z,4.47
2023-05-19T00:45:18.042Z,4.90
2023-05-19T00:48:05.329Z,4.10
2023-05-19T00:50:58.432Z,4.17
2023-05-19T00:53:49.222Z,4.50
2023-05-19T00:56:37.685Z,5.27
2023-05-19T00:59:25.024Z,4.33
2023-05-19T01:02:13.799Z,4.17
2023-05-19T01:05:01.975Z,4.37
2023-05-19T01:07:53.980Z,4.60
2023-05-19T01:10:41.217Z,4.77
2023-05-19T01:13:29.954Z,4.40
2023-05-19T01:16:25.205Z,4.10
2023-05-19T01:19:30.775Z,4.17
2023-05-19T01:22:55.363Z,5.17
2023-05-19T01:26:13.116Z,3.90
2023-05-19T01:29:17.208Z,4.40
2023-05-19T01:32:06.784Z,3.80
2023-05-19T01:34:57.578Z,4.30
2023-05-19T01:37:47.391Z,3.77
2023-05-19T01:40:36.078Z,4.17
2023-05-19T01:43:27.091Z,4.67
2023-05-19T01:46:14.863Z,4.07
2023-05-19T01:49:05.120Z,4.13
2023-05-19T01:51:52.913Z,4.37
2023-05-19T01:54:43.089Z,3.63
2023-05-19T01:57:40.244Z,3.87
2023-05-19T02:00:36.846Z,3.87
2023-05-19T02:03:37.770Z,5.00
2023-05-19T02:06:36.048Z,4.03
2023-05-19T02:09:33.484Z,4.50
2023-05-19T02:12:27.104Z,4.40
2023-05-19T02:15:17.176Z,4.20
2023-05-19T02:18:05.539Z,4.07
2023-05-19T02:20:53.625Z,4.17
2023-05-19T02:23:42.840Z,4.43
2023-05-19T02:26:30.482Z,4.10
2023-05-19T02:29:17.703Z,3.97
2023-05-19T02:32:07.309Z,4.63
2023-05-19T02:34:56.962Z,4.70
2023-05-19T02:37:44.629Z,4.23
2023-05-19T02:40:34.192Z,4.73
2023-05-19T02:43:21.513Z,4.33
2023-05-19T02:46:09.865Z,3.90
2023-05-19T02:48:57.751Z,3.97
2023-05-19T02:51:44.941Z,4.63
2023-05-19T02:54:34.416Z,5.23
2023-05-19T02:57:23.374Z,4.57
2023-05-19T03:00:11.653Z,4.03
2023-05-19T03:03:03.190Z,3.97
2023-05-19T03:05:50.952Z,4.30
2023-05-19T03:08:40.116Z,4.37
2023-05-19T03:11:31.390Z,4.40
2023-05-19T03:14:24.416Z,4.50
2023-05-19T03:17:12.330Z,4.73
2023-05-19T03:20:01.918Z,4.50
2023-05-19T03:22:49.545Z,4.53
2023-05-19T03:25:36.774Z,4.50
2023-05-19T03:28:29.566Z,4.77
2023-05-19T03:31:19.091Z,4.67
2023-05-19T03:34:07.282Z,4.73
2023-05-19T03:36:54.519Z,5.20
2023-05-19T03:39:43.619Z,4.50
2023-05-19T03:42:31.287Z,4.83
2023-05-19T03:45:18.965Z,4.93
2023-05-19T03:48:11.361Z,6.30
2023-05-19T03:51:26.484Z,4.57
2023-05-19T03:54:17.491Z,4.07
2023-05-19T03:57:05.322Z,4.10
2023-05-19T03:59:53.483Z,5.37
2023-05-19T04:02:42.070Z,4.67
2023-05-19T04:05:31.316Z,4.83
2023-05-19T04:08:18.951Z,4.47
2023-05-19T04:11:06.686Z,4.13
2023-05-19T04:13:53.813Z,4.47
2023-05-19T04:16:42.203Z,4.53
2023-05-19T04:19:29.878Z,4.90
2023-05-19T04:22:18.353Z,4.63
2023-05-19T04:25:08.049Z,5.10
2023-05-19T04:27:57.708Z,4.57
2023-05-19T04:30:47.101Z,4.37
2023-05-19T04:33:34.430Z,4.73
2023-05-19T04:36:22.874Z,5.33
2023-05-19T04:39:14.417Z,4.27
2023-05-19T04:42:04.867Z,4.30
2023-05-19T04:44:52.831Z,4.20
2023-05-19T04:47:44.834Z,4.77
2023-05-19T04:50:32.941Z,4.33
2023-05-19T04:53:22.026Z,4.63
2023-05-19T04:56:15.648Z,4.80
2023-05-19T04:59:04.962Z,4.57
2023-05-19T05:01:52.805Z,4.97
2023-05-19T05:04:43.565Z,5.17
2023-05-19T05:07:32.502Z,4.13
2023-05-19T05:10:20.606Z,4.30
2023-05-19T05:13:11.961Z,4.33
2023-05-19T05:16:00.228Z,4.73
2023-05-19T05:18:48.843Z,4.60
2023-05-19T05:21:37.488Z,3.97
2023-05-19T05:24:25.589Z,5.70
2023-05-19T05:27:17.990Z,4.37
2023-05-19T05:30:08.211Z,4.40
2023-05-19T05:32:57.620Z,4.43
2023-05-19T05:35:51.728Z,4.60
2023-05-19T05:38:39.436Z,4.47
2023-05-19T05:41:27.371Z,4.77
2023-05-19T05:44:15.656Z,5.03
2023-05-19T05:47:07.461Z,4.40
2023-05-19T05:49:56.755Z,6.03
2023-05-19T05:52:46.252Z,5.03
2023-05-19T05:55:35.457Z,4.17
2023-05-19T05:58:22.808Z,3.93
2023-05-19T06:01:11.335Z,4.10
2023-05-19T06:04:00.166Z,4.10
2023-05-19T06:06:48.321Z,3.70
2023-05-19T06:09:40.297Z,3.28
2023-05-19T06:12:29.880Z,3.40
2023-05-19T06:15:17.043Z,3.53
2023-05-19T06:18:17.959Z,3.28
2023-05-19T06:21:07.519Z,3.40
2023-05-19T06:23:55.456Z,3.58
2023-05-19T06:26:42.614Z,4.05
2023-05-19T06:29:29.837Z,3.58
2023-05-19T06:32:21.662Z,3.88
2023-05-19T06:35:09.424Z,3.15
2023-05-19T06:37:58.476Z,3.30
2023-05-19T06:40:45.713Z,3.42
2023-05-19T06:43:34.528Z,3.15
2023-05-19T06:46:24.990Z,3.00
2023-05-19T06:49:12.644Z,2.75
2023-05-19T06:52:04.102Z,3.28
2023-05-19T06:54:53.836Z,3.35
2023-05-19T06:57:41.345Z,3.45
2023-05-19T07:00:29.417Z,2.88
2023-05-19T07:03:17.639Z,3.28
2023-05-19T07:06:08.110Z,3.70
2023-05-19T07:08:56.686Z,3.72
2023-05-19T07:11:46.400Z,3.38
2023-05-19T07:14:34.072Z,2.95
2023-05-19T07:17:21.748Z,3.47
2023-05-19T07:20:10.595Z,3.15
2023-05-19T07:22:57.713Z,2.85
2023-05-19T07:25:45.844Z,3.33
2023-05-19T07:28:34.438Z,2.90
2023-05-19T07:31:22.561Z,2.90
2023-05-19T07:34:10.525Z,2.92
2023-05-19T07:36:57.643Z,2.63
2023-05-19T07:39:45.696Z,2.65
2023-05-19T07:42:32.904Z,2.55
2023-05-19T07:45:21.474Z,3.00
2023-05-19T07:48:09.654Z,2.80
2023-05-19T07:50:56.994Z,3.25
2023-05-19T07:53:45.135Z,2.92
2023-05-19T07:56:32.252Z,3.10
2023-05-19T07:59:20.094Z,3.10
2023-05-19T08:02:08.674Z,2.80
2023-05-19T08:04:56.964Z,3.15
2023-05-19T08:07:44.287Z,2.80
2023-05-19T08:10:32.693Z,3.20
2023-05-19T08:13:20.109Z,3.33
2023-05-19T08:16:07.499Z,3.35
2023-05-19T08:18:56.517Z,3.00
2023-05-19T08:21:44.716Z,3.00
2023-05-19T08:24:33.806Z,3.60
2023-05-19T08:27:21.032Z,3.35
2023-05-19T08:30:09.458Z,3.58
2023-05-19T08:32:57.691Z,4.43
2023-05-19T08:35:46.382Z,3.65
2023-05-19T08:38:34.662Z,3.60
2023-05-19T08:41:23.744Z,3.33
2023-05-19T08:44:11.082Z,4.03
2023-05-19T08:47:03.240Z,4.20
2023-05-19T08:49:53.754Z,5.00
2023-05-19T08:52:53.131Z,4.30
2023-05-19T08:55:47.354Z,4.75
2023-05-19T08:58:35.330Z,4.47
2023-05-19T09:01:23.470Z,4.03
2023-05-19T09:04:12.141Z,4.95
2023-05-19T09:07:04.315Z,4.40
2023-05-19T09:09:52.876Z,4.80
2023-05-19T09:12:41.295Z,4.43
2023-05-19T09:15:28.791Z,4.85
2023-05-19T09:18:16.955Z,4.47
2023-05-19T09:21:07.717Z,4.45
2023-05-19T09:23:56.031Z,4.60
2023-05-19T09:26:45.419Z,4.60
2023-05-19T09:29:33.174Z,4.10
2023-05-19T09:32:27.373Z,4.35
2023-05-19T09:35:20.670Z,4.25
2023-05-19T09:38:07.981Z,4.68
2023-05-19T09:40:58.742Z,4.00
2023-05-19T09:43:55.415Z,4.70
2023-05-19T09:46:49.424Z,3.95
2023-05-19T09:49:37.565Z,4.75
2023-05-19T09:52:26.317Z,4.53
2023-05-19T09:55:14.352Z,5.15
2023-05-19T09:58:04.681Z,4.43
2023-05-19T10:00:55.299Z,4.20
2023-05-19T10:03:43.598Z,4.38
2023-05-19T10:06:31.822Z,4.50
2023-05-19T10:09:23.248Z,4.38
2023-05-19T10:12:12.151Z,5.03
2023-05-19T10:15:00.474Z,5.13
2023-05-19T10:17:50.853Z,4.75
2023-05-19T10:20:40.575Z,4.53
2023-05-19T10:23:27.886Z,4.03
2023-05-19T10:26:16.618Z,5.03
2023-05-19T10:29:05.025Z,5.07
2023-05-19T10:31:55.036Z,4.95
2023-05-19T10:35:12.089Z,5.15
2023-05-19T10:38:07.444Z,5.13
2023-05-19T10:41:04.535Z,4.85
2023-05-19T10:44:01.949Z,5.88
2023-05-19T10:46:50.123Z,6.32
2023-05-19T10:49:37.517Z,7.13
2023-05-19T10:52:26.729Z,5.75
2023-05-19T10:55:17.768Z,5.75
2023-05-19T10:58:05.523Z,5.97
2023-05-19T11:01:01.223Z,6.60
2023-05-19T11:03:51.130Z,6.18
2023-05-19T11:06:40.296Z,5.60
2023-05-19T11:09:39.693Z,5.38
2023-05-19T11:12:28.023Z,5.25
2023-05-19T11:15:16.342Z,5.05
2023-05-19T11:18:05.427Z,5.38
2023-05-19T11:20:58.294Z,6.00
2023-05-19T11:23:46.522Z,5.55
2023-05-19T11:26:46.278Z,5.75
2023-05-19T11:29:34.881Z,5.95
2023-05-19T11:32:25.727Z,5.63
2023-05-19T11:35:15.223Z,5.75
2023-05-19T11:38:03.267Z,5.72
2023-05-19T11:40:54.304Z,5.72
2023-05-19T11:43:43.303Z,5.03
2023-05-19T11:46:32.051Z,5.30
2023-05-19T11:49:19.840Z,5.18
2023-05-19T11:52:07.861Z,5.50
2023-05-19T11:54:55.603Z,5.38
2023-05-19T11:58:02.815Z,5.43
2023-05-19T12:00:54.580Z,5.40
2023-05-19T12:03:42.410Z,5.47
2023-05-19T12:06:30.443Z,6.95
2023-05-19T12:09:18.830Z,5.68
2023-05-19T12:12:06.279Z,5.53
2023-05-19T12:14:54.026Z,5.78
2023-05-19T12:17:42.617Z,6.07
2023-05-19T12:20:32.948Z,6.70
2023-05-19T12:23:20.454Z,6.75
2023-05-19T12:26:08.992Z,6.05
2023-05-19T12:28:56.178Z,5.80
2023-05-19T12:31:46.871Z,6.38
2023-05-19T12:34:37.379Z,6.47
2023-05-19T12:37:28.076Z,6.95
2023-05-19T12:40:16.763Z,6.68
2023-05-19T12:43:05.910Z,8.65
2023-05-19T12:45:53.414Z,7.18
2023-05-19T12:48:42.230Z,6.30
2023-05-19T12:51:31.249Z,6.03
2023-05-19T12:54:19.577Z,6.88
2023-05-19T12:57:07.721Z,6.45
2023-05-19T13:00:01.035Z,7.13
2023-05-19T13:02:56.790Z,7.53
2023-05-19T13:05:47.144Z,6.60
2023-05-19T13:08:36.531Z,6.72
2023-05-19T13:11:24.260Z,7.38
2023-05-19T13:14:12.532Z,6.50
2023-05-19T13:17:00.339Z,6.65
2023-05-19T13:19:48.247Z,5.82
2023-05-19T13:22:35.881Z,5.82
2023-05-19T13:25:25.229Z,6.18
2023-05-19T13:28:12.756Z,6.95
2023-05-19T13:31:00.883Z,6.10
2023-05-19T13:33:48.011Z,6.25
2023-05-19T13:36:36.975Z,5.82
2023-05-19T13:39:24.310Z,6.10
2023-05-19T13:42:13.342Z,6.93
2023-05-19T13:45:00.675Z,5.40
2023-05-19T13:47:48.320Z,6.30
2023-05-19T13:50:35.624Z,5.82
2023-05-19T13:53:23.301Z,6.28
2023-05-19T13:56:10.556Z,5.45
2023-05-19T13:58:59.518Z,5.53
2023-05-19T14:01:46.680Z,6.05
2023-05-19T14:04:37.664Z,6.13
2023-05-19T14:07:25.754Z,6.40
2023-05-19T14:10:14.070Z,6.15
2023-05-19T14:15:53.320Z,6.18
2023-05-19T14:18:40.644Z,5.95
2023-05-19T14:21:28.787Z,6.30
2023-05-19T14:24:15.929Z,5.07
2023-05-19T14:27:04.162Z,6.68
2023-05-19T14:29:51.292Z,6.18
2023-05-19T14:32:41.454Z,5.38
2023-05-19T14:35:28.870Z,5.93
2023-05-19T14:38:17.063Z,6.82
2023-05-19T14:41:04.530Z,5.50
2023-05-19T14:43:52.722Z,6.25
2023-05-19T14:46:39.953Z,6.10
2023-05-19T14:49:29.588Z,7.93
2023-05-19T14:52:17.798Z,6.25
2023-05-19T14:55:06.643Z,7.13
2023-05-19T14:57:53.836Z,6.43
2023-05-19T15:00:42.008Z,6.30
2023-05-19T15:03:29.682Z,6.25
2023-05-19T15:06:18.788Z,6.18
2023-05-19T15:09:05.995Z,6.05
2023-05-19T15:11:53.682Z,7.32
2023-05-19T15:14:41.379Z,7.20
2023-05-19T15:17:28.553Z,6.75
2023-05-19T15:20:16.887Z,6.40
2023-05-19T15:23:05.334Z,7.35
2023-05-19T15:25:53.124Z,6.57
2023-05-19T15:28:40.799Z,6.35
2023-05-19T15:31:28.558Z,6.45
2023-05-19T15:34:16.299Z,6.53
2023-05-19T15:37:03.572Z,6.45
2023-05-19T15:39:52.076Z,6.10
2023-05-19T15:42:39.714Z,6.60
2023-05-19T15:45:27.471Z,6.25
2023-05-19T15:48:14.662Z,5.75
2023-05-19T15:51:02.900Z,6.03
2023-05-19T15:53:50.594Z,6.10
2023-05-19T15:56:39.544Z,6.80
2023-05-19T15:59:26.660Z,6.30
2023-05-19T16:02:15.514Z,5.88
2023-05-19T16:05:02.965Z,5.80
2023-05-19T16:07:50.124Z,6.47
2023-05-19T16:10:37.337Z,5.70
2023-05-19T16:13:25.932Z,5.25
2023-05-19T16:16:13.745Z,5.13
2023-05-19T16:19:01.169Z,5.85
2023-05-19T16:21:48.802Z,5.60
2023-05-19T16:24:35.975Z,5.45
2023-05-19T16:27:23.625Z,5.72
2023-05-19T16:30:13.103Z,5.88
2023-05-19T16:33:01.374Z,5.43
2023-05-19T16:35:48.926Z,5.60
2023-05-19T16:38:36.701Z,5.65
2023-05-19T16:41:24.425Z,5.50
2023-05-19T16:44:14.292Z,5.38
2023-05-19T16:47:02.979Z,6.20
2023-05-19T16:49:50.134Z,4.85
2023-05-19T16:52:37.806Z,5.43
2023-05-19T16:55:26.631Z,5.85
2023-05-19T16:58:14.300Z,5.28
2023-05-19T17:01:01.530Z,5.15
2023-05-19T17:03:51.118Z,5.93
2023-05-19T17:06:38.879Z,5.35
2023-05-19T17:09:26.825Z,5.35
2023-05-19T17:12:14.027Z,5.50
2023-05-19T17:15:02.193Z,5.53
2023-05-19T17:17:50.184Z,6.05
2023-05-19T17:20:38.786Z,6.07
2023-05-19T17:23:26.983Z,5.30
2023-05-19T17:26:15.770Z,5.22
2023-05-19T17:29:04.141Z,5.28
2023-05-19T17:31:51.402Z,6.10
2023-05-19T17:34:39.747Z,5.82
2023-05-19T17:37:28.418Z,6.00
2023-05-19T17:40:16.413Z,5.47
2023-05-19T17:43:03.680Z,5.35
2023-05-19T17:45:51.421Z,5.72
2023-05-19T17:48:39.737Z,5.90
2023-05-19T17:51:28.405Z,6.10
2023-05-19T17:54:17.510Z,5.95
2023-05-19T17:57:10.760Z,5.00
2023-05-19T17:59:58.438Z,6.38
2023-05-19T18:02:46.851Z,7.03
2023-05-19T18:05:34.359Z,6.78
2023-05-19T18:08:23.050Z,6.55
2023-05-19T18:11:15.822Z,6.30
2023-05-19T18:14:03.644Z,7.05
2023-05-19T18:16:50.962Z,6.53
2023-05-19T18:19:38.746Z,7.07
2023-05-19T18:22:26.226Z,6.63
2023-05-19T18:25:14.294Z,7.13
2023-05-19T18:28:02.954Z,6.75
2023-05-19T18:30:59.376Z,7.53
2023-05-19T18:33:47.087Z,7.40
2023-05-19T18:36:36.104Z,7.32
2023-05-19T18:39:23.261Z,7.10
2023-05-19T18:42:11.028Z,6.63
2023-05-19T18:44:59.561Z,6.38
2023-05-19T18:47:47.659Z,7.03
2023-05-19T18:50:35.185Z,6.72
2023-05-19T18:53:22.817Z,6.25
2023-05-19T18:56:11.951Z,6.78
2023-05-19T18:58:59.174Z,6.43
2023-05-19T19:01:48.313Z,6.25
2023-05-19T19:04:35.780Z,6.95
2023-05-19T19:07:24.259Z,6.47
2023-05-19T19:10:11.948Z,7.10
2023-05-19T19:12:59.628Z,6.70
2023-05-19T19:15:47.537Z,6.90
2023-05-19T19:18:36.414Z,7.20
2023-05-19T19:21:24.275Z,7.30
2023-05-19T19:24:11.485Z,7.45
2023-05-19T19:26:59.693Z,7.78
2023-05-19T19:29:47.134Z,8.25
2023-05-19T19:32:34.831Z,7.60
2023-05-19T19:35:23.598Z,7.82
2023-05-19T19:38:10.884Z,6.70
2023-05-19T19:40:58.841Z,7.32
2023-05-19T19:43:46.234Z,8.35
2023-05-19T19:46:33.475Z,7.72
2023-05-19T19:49:21.010Z,7.80
2023-05-19T19:52:09.556Z,8.20
2023-05-19T19:54:57.330Z,8.95
2023-05-19T19:57:47.137Z,8.65
2023-05-19T20:00:34.542Z,8.57
2023-05-19T20:03:22.306Z,8.18
2023-05-19T20:06:09.647Z,7.97
2023-05-19T20:08:58.214Z,7.88
2023-05-19T20:11:45.408Z,7.43
2023-05-19T20:14:33.111Z,7.82
2023-05-19T20:17:20.767Z,8.02
2023-05-19T20:20:10.802Z,7.45
2023-05-19T20:22:58.453Z,8.52
2023-05-19T20:25:58.915Z,8.20
2023-05-19T20:28:54.786Z,7.97
2023-05-19T20:31:42.062Z,7.78
2023-05-19T20:34:29.248Z,8.23
2023-05-19T20:37:17.861Z,7.38
2023-05-19T20:40:06.493Z,7.93
2023-05-19T20:42:55.043Z,7.85
2023-05-19T20:45:43.805Z,7.50
2023-05-19T20:48:31.868Z,7.70
2023-05-19T20:51:19.107Z,7.72
2023-05-19T20:54:07.365Z,8.10
2023-05-19T20:56:54.604Z,7.75
2023-05-19T20:59:44.145Z,7.55
2023-05-19T21:02:31.422Z,7.68
2023-05-19T21:05:19.405Z,7.03
2023-05-19T21:08:12.505Z,6.97
2023-05-19T21:11:00.225Z,7.65
2023-05-19T21:13:47.372Z,7.65
2023-05-19T21:16:38.753Z,7.55
2023-05-19T21:19:26.273Z,7.35
2023-05-19T21:22:14.470Z,7.55
2023-05-19T21:25:02.172Z,7.80
2023-05-19T21:27:51.468Z,7.85
2023-05-19T21:30:39.249Z,6.78
2023-05-19T21:33:27.833Z,7.53
2023-05-19T21:36:14.978Z,7.28
2023-05-19T21:39:04.846Z,7.47
2023-05-19T21:41:52.089Z,7.47
2023-05-19T21:44:39.782Z,7.90
2023-05-19T21:47:27.134Z,5.95
2023-05-19T21:50:17.450Z,5.03
2023-05-19T21:53:04.703Z,5.00
2023-05-19T21:55:52.866Z,3.83
2023-05-19T21:58:40.552Z,3.83
2023-05-19T22:01:27.783Z,3.67
2023-05-19T22:04:17.878Z,3.50
2023-05-19T22:07:07.714Z,3.58
2023-05-19T22:09:55.446Z,3.17
2023-05-19T22:12:42.621Z,4.22
2023-05-19T22:15:30.765Z,3.10
2023-05-19T22:18:17.982Z,3.55
2023-05-19T22:21:06.271Z,3.70
2023-05-19T22:23:54.858Z,3.05
2023-05-19T22:26:43.525Z,3.40
2023-05-19T22:29:30.834Z,3.28
2023-05-19T22:32:19.998Z,3.33
2023-05-19T22:35:08.305Z,3.60
2023-05-19T22:37:56.585Z,3.35
2023-05-19T22:40:45.666Z,3.67
2023-05-19T22:43:33.344Z,3.35
2023-05-19T22:46:21.285Z,3.38
2023-05-19T22:49:08.586Z,2.97
2023-05-19T22:51:56.797Z,3.50
2023-05-19T22:54:44.898Z,3.78
2023-05-19T22:57:33.973Z,3.33
2023-05-19T23:00:21.217Z,3.45
2023-05-19T23:03:09.432Z,3.65
2023-05-19T23:05:56.803Z,3.60
2023-05-19T23:08:46.728Z,3.45
2023-05-19T23:11:35.748Z,3.90
2023-05-19T23:14:26.086Z,3.92
2023-05-19T23:17:13.413Z,3.40
2023-05-19T23:20:01.729Z,4.15
2023-05-19T23:22:48.907Z,4.03
2023-05-19T23:25:37.083Z,3.72
2023-05-19T23:28:24.248Z,3.80
2023-05-19T23:31:13.998Z,4.35
2023-05-19T23:34:01.723Z,3.72
2023-05-19T23:36:49.444Z,4.47
2023-05-19T23:39:38.688Z,4.18
2023-05-19T23:42:26.002Z,4.55
2023-05-19T23:45:14.158Z,4.82
2023-05-19T23:48:03.184Z,4.27
2023-05-19T23:50:50.364Z,4.85
2023-05-19T23:53:38.532Z,4.03
2023-05-19T23:56:25.998Z,4.40
2023-05-19T23:59:13.662Z,3.93
